VTBS/BKK METAR and TAF weather

Enter ICAO airport designator
Station Type Date Time Source
VTBS METAR 2020/07/09 23:00 UTC NOAA

VTBS 092300Z VRB02G12KT 9999 FEW022 27/27 Q1006 NOSIG


Station Type Date Time Source
VTBS Decoded METAR 2020/07/09 23:00 UTC NOAA

Chon Buri, Thailand (VTBS) 13-22N 100-59E 2M
Jul 09, 2020 - 07:00 PM EDT / 2020.07.09 2300 UTC
Wind: Variable at 2 MPH (2 KT) gusting to 14 MPH (12 KT):0
Visibility: greater than 7 mile(s):0
Sky conditions: mostly clear
Temperature: 80 F (27 C)
Dew Point: 80 F (27 C)
Relative Humidity: 100%
Pressure (altimeter): 29.71 in. Hg (1006 hPa)
ob: VTBS 092300Z VRB02G12KT 9999 FEW022 27/27 Q1006 NOSIG
cycle: 23

Station Type Date Time Source
VTBS TAF 2020/07/09 18:00 UTC NOAA

TAF VTBS 091700Z 0918/1024 20008KT 9999 FEW020
TEMPO 1014/1018 23015KT 6000 -TSRA FEW018CB SCT030 BKN100

Example: see airport list